Time;durP1;ratioP1;P1;durP2;ratioP2;P2;SDS_P1;SDS_P2;PMS_P1;PMS_P2;Temp;Humidity;BMP_temperature;BMP_pressure;BME280_temperature;BME280_humidity;BME280_pressure;Samples;Min_cycle;Max_cycle;Signal;HPM_P1;HPM_P2
2021/10/13 00:01:41;;;;;;;29.95;20.60;;;;;;;;;;6223251;28;20111;-69
2021/10/13 00:04:42;;;;;;;28.38;19.27;;;;;;;;;;6239981;28;20052;-68
2021/10/13 00:07:44;;;;;;;32.67;20.00;;;;;;;;;;6225615;28;20059;-68
2021/10/13 00:10:46;;;;;;;33.40;20.45;;;;;;;;;;6227369;28;20354;-69
2021/10/13 00:13:49;;;;;;;29.77;20.42;;;;;;;;;;6236449;28;20041;-69
2021/10/13 00:16:55;;;;;;;35.35;21.92;;;;;;;;;;6225453;28;20095;-69
2021/10/13 00:19:57;;;;;;;32.00;22.73;;;;;;;;;;6233490;28;20661;-73
2021/10/13 00:22:58;;;;;;;29.73;20.50;;;;;;;;;;6228169;28;20135;-69
2021/10/13 00:26:00;;;;;;;30.35;20.55;;;;;;;;;;6230959;28;20055;-69
2021/10/13 00:29:03;;;;;;;31.52;19.83;;;;;;;;;;6240738;28;20056;-68
2021/10/13 00:32:05;;;;;;;31.80;20.65;;;;;;;;;;6222796;28;20386;-68
2021/10/13 00:35:07;;;;;;;29.55;20.45;;;;;;;;;;6232599;28;20094;-72
2021/10/13 00:38:09;;;;;;;31.55;21.05;;;;;;;;;;6230750;28;20049;-68
2021/10/13 00:41:10;;;;;;;33.92;21.75;;;;;;;;;;6227365;28;20412;-68
2021/10/13 00:44:13;;;;;;;37.28;21.85;;;;;;;;;;6242682;28;20466;-69
2021/10/13 00:47:15;;;;;;;32.63;20.48;;;;;;;;;;6223456;28;20056;-71
2021/10/13 00:50:16;;;;;;;34.28;20.88;;;;;;;;;;6229560;28;20042;-72
2021/10/13 00:53:18;;;;;;;34.78;21.48;;;;;;;;;;6233475;28;20049;-68
2021/10/13 00:56:19;;;;;;;32.03;20.55;;;;;;;;;;6231358;28;20046;-68
2021/10/13 00:59:22;;;;;;;36.53;21.33;;;;;;;;;;6239717;28;20474;-68
2021/10/13 01:02:30;;;;;;;32.05;21.83;;;;;;;;;;6220640;28;20045;-67
2021/10/13 01:05:49;;;;;;;29.75;20.75;;;;;;;;;;6221061;28;20110;-69
2021/10/13 01:08:56;;;;;;;33.70;20.80;;;;;;;;;;6231720;28;20708;-68
2021/10/13 01:12:10;;;;;;;33.40;21.85;;;;;;;;;;6225766;28;20144;-68
2021/10/13 01:15:19;;;;;;;30.95;21.23;;;;;;;;;;6228307;28;20521;-72
2021/10/13 01:18:23;;;;;;;31.20;20.77;;;;;;;;;;6225141;28;20096;-68
2021/10/13 01:21:37;;;;;;;32.03;21.23;;;;;;;;;;6222562;28;20049;-70
2021/10/13 01:24:47;;;;;;;31.15;20.35;;;;;;;;;;6235124;28;20188;-69
2021/10/13 01:27:54;;;;;;;33.72;21.40;;;;;;;;;;6227114;28;20048;-68
2021/10/13 01:30:59;;;;;;;33.70;21.85;;;;;;;;;;6222541;28;20466;-68
2021/10/13 01:34:03;;;;;;;36.03;22.00;;;;;;;;;;6231817;28;20041;-67
2021/10/13 01:37:06;;;;;;;;;;;;;;;;;;6221724;28;20053;-69
2021/10/13 01:40:10;;;;;;;33.75;20.77;;;;;;;;;;6231612;28;20895;-72
2021/10/13 01:43:13;;;;;;;34.05;21.77;;;;;;;;;;6230082;28;20546;-68
2021/10/13 01:46:16;;;;;;;32.72;21.13;;;;;;;;;;6220225;28;20060;-67
2021/10/13 01:49:18;;;;;;;32.80;21.70;;;;;;;;;;6232144;28;21658;-67
2021/10/13 01:52:21;;;;;;;30.83;22.27;;;;;;;;;;6227606;28;20052;-70
2021/10/13 01:55:23;;;;;;;32.83;20.75;;;;;;;;;;6228923;28;20050;-69
2021/10/13 01:58:27;;;;;;;31.80;21.42;;;;;;;;;;6236821;28;20049;-68
2021/10/13 02:01:31;;;;;;;31.23;21.30;;;;;;;;;;6220993;28;20049;-67
2021/10/13 02:04:38;;;;;;;34.63;22.23;;;;;;;;;;6235244;28;20104;-68
2021/10/13 02:07:41;;;;;;;35.67;23.42;;;;;;;;;;6224114;28;20041;-68
2021/10/13 02:10:45;;;;;;;32.40;22.02;;;;;;;;;;6223844;28;20045;-69
2021/10/13 02:13:48;;;;;;;36.17;22.55;;;;;;;;;;6234403;28;20503;-67
2021/10/13 02:16:51;;;;;;;40.55;23.42;;;;;;;;;;6217990;28;20088;-68
2021/10/13 02:19:53;;;;;;;37.88;22.83;;;;;;;;;;6232471;28;20049;-68
2021/10/13 02:22:56;;;;;;;35.10;22.70;;;;;;;;;;6222371;28;20057;-68
2021/10/13 02:25:59;;;;;;;35.45;23.65;;;;;;;;;;6221885;28;20200;-68
2021/10/13 02:29:06;;;;;;;34.80;22.52;;;;;;;;;;6235659;28;20060;-71
2021/10/13 02:32:08;;;;;;;34.80;22.52;;;;;;;;;;6217902;28;20052;-71
2021/10/13 02:35:10;;;;;;;39.35;23.52;;;;;;;;;;6230939;28;20045;-72
2021/10/13 02:38:12;;;;;;;33.25;23.65;;;;;;;;;;6233653;28;20050;-67
2021/10/13 02:41:13;;;;;;;36.65;22.55;;;;;;;;;;6225723;28;20049;-68
2021/10/13 02:44:16;;;;;;;36.35;22.33;;;;;;;;;;6233784;28;20061;-68
2021/10/13 02:47:22;;;;;;;36.55;22.85;;;;;;;;;;6219164;28;20095;-68
2021/10/13 02:50:28;;;;;;;35.67;22.67;;;;;;;;;;6223414;28;20042;-68
2021/10/13 02:53:36;;;;;;;40.58;23.23;;;;;;;;;;6231735;28;20501;-67
2021/10/13 02:56:41;;;;;;;36.00;23.63;;;;;;;;;;6224715;28;20525;-69
2021/10/13 02:59:49;;;;;;;32.88;22.73;;;;;;;;;;6236481;28;20049;-69
2021/10/13 03:02:58;;;;;;;34.17;23.20;;;;;;;;;;6216932;28;20037;-68
2021/10/13 03:06:01;;;;;;;35.17;23.13;;;;;;;;;;6212855;28;20051;-68
2021/10/13 03:09:03;;;;;;;34.35;23.40;;;;;;;;;;6232204;28;20057;-68
2021/10/13 03:12:08;;;;;;;34.33;22.42;;;;;;;;;;6223800;28;20041;-67
2021/10/13 03:15:12;;;;;;;36.83;23.83;;;;;;;;;;6231626;28;20147;-72
2021/10/13 03:18:15;;;;;;;32.88;22.33;;;;;;;;;;6230830;28;20061;-68
2021/10/13 03:21:18;;;;;;;29.90;21.88;;;;;;;;;;6228415;28;20659;-68
2021/10/13 03:24:20;;;;;;;35.15;22.80;;;;;;;;;;6243198;28;20045;-68
2021/10/13 03:27:25;;;;;;;32.53;21.92;;;;;;;;;;6231148;28;20042;-71
2021/10/13 03:30:28;;;;;;;32.50;21.88;;;;;;;;;;6233384;28;20056;-67
2021/10/13 03:33:29;;;;;;;35.67;23.25;;;;;;;;;;6231674;28;20098;-68
2021/10/13 03:36:39;;;;;;;34.90;22.58;;;;;;;;;;6228792;28;20072;-71
2021/10/13 03:39:41;;;;;;;34.17;21.40;;;;;;;;;;6234077;28;20042;-68
2021/10/13 03:42:42;;;;;;;32.33;21.23;;;;;;;;;;6231867;28;20050;-70
2021/10/13 03:45:45;;;;;;;32.10;21.52;;;;;;;;;;6228516;28;20115;-67
2021/10/13 03:48:50;;;;;;;34.45;21.88;;;;;;;;;;6240720;28;20045;-68
2021/10/13 03:51:51;;;;;;;;;;;;;;;;;;6231067;28;20048;-67
2021/10/13 03:54:52;;;;;;;36.38;22.10;;;;;;;;;;6243572;28;19928;-69
2021/10/13 03:57:54;;;;;;;32.83;21.38;;;;;;;;;;6234432;28;20045;-68
2021/10/13 04:00:57;;;;;;;35.05;22.63;;;;;;;;;;6230609;28;20083;-68
2021/10/13 04:03:58;;;;;;;34.40;22.52;;;;;;;;;;6242170;28;20063;-68
2021/10/13 04:07:00;;;;;;;34.80;21.58;;;;;;;;;;6229757;28;20049;-69
2021/10/13 04:10:02;;;;;;;35.83;22.45;;;;;;;;;;6237134;28;20060;-68
2021/10/13 04:13:04;;;;;;;32.20;22.23;;;;;;;;;;6226916;28;20049;-69
2021/10/13 04:16:07;;;;;;;38.58;22.50;;;;;;;;;;6227350;28;20189;-68
2021/10/13 04:19:09;;;;;;;32.38;21.40;;;;;;;;;;6244868;28;20508;-68
2021/10/13 04:22:11;;;;;;;32.63;21.65;;;;;;;;;;6230106;28;20051;-68
2021/10/13 04:25:12;;;;;;;30.85;20.95;;;;;;;;;;6241687;28;20502;-72
2021/10/13 04:28:14;;;;;;;32.45;21.60;;;;;;;;;;6241529;28;20045;-68
2021/10/13 04:31:17;;;;;;;33.40;22.10;;;;;;;;;;6230387;28;20053;-68
2021/10/13 04:34:18;;;;;;;34.55;22.30;;;;;;;;;;6235206;28;20058;-67
2021/10/13 04:37:20;;;;;;;32.42;21.95;;;;;;;;;;6226861;28;20397;-68
2021/10/13 04:40:21;;;;;;;35.80;22.60;;;;;;;;;;6230173;28;20045;-72
2021/10/13 04:43:23;;;;;;;33.70;21.65;;;;;;;;;;6238252;28;20047;-68
2021/10/13 04:46:26;;;;;;;36.38;23.00;;;;;;;;;;6224984;28;20056;-67
2021/10/13 04:49:28;;;;;;;31.88;22.33;;;;;;;;;;6239343;28;20063;-68
2021/10/13 04:52:29;;;;;;;31.88;21.45;;;;;;;;;;6226874;28;20103;-68
2021/10/13 04:55:31;;;;;;;33.15;22.27;;;;;;;;;;6232988;28;20850;-70
2021/10/13 04:58:33;;;;;;;36.38;22.73;;;;;;;;;;6238752;28;20387;-68
2021/10/13 05:01:35;;;;;;;35.10;21.42;;;;;;;;;;6223866;28;20172;-68
2021/10/13 05:04:37;;;;;;;34.50;21.92;;;;;;;;;;6236595;28;20053;-66
2021/10/13 05:07:40;;;;;;;35.13;23.15;;;;;;;;;;6226555;28;20128;-67
2021/10/13 05:10:41;;;;;;;34.90;22.85;;;;;;;;;;6226868;28;20355;-68
2021/10/13 05:13:43;;;;;;;35.28;22.92;;;;;;;;;;6241626;28;20057;-71
2021/10/13 05:16:46;;;;;;;38.55;22.70;;;;;;;;;;6223837;28;20049;-67
2021/10/13 05:19:47;;;;;;;39.65;23.08;;;;;;;;;;6239203;28;20053;-68
2021/10/13 05:22:49;;;;;;;36.85;22.63;;;;;;;;;;6228999;28;20041;-68
2021/10/13 05:25:51;;;;;;;38.35;22.10;;;;;;;;;;6228242;28;20049;-68
2021/10/13 05:28:52;;;;;;;34.33;23.17;;;;;;;;;;6239802;28;20489;-67
2021/10/13 05:31:55;;;;;;;35.70;23.38;;;;;;;;;;6223500;28;20053;-68
2021/10/13 05:34:57;;;;;;;36.83;22.83;;;;;;;;;;6241400;28;20559;-69
2021/10/13 05:37:58;;;;;;;37.90;22.90;;;;;;;;;;6230126;28;20099;-67
2021/10/13 05:41:01;;;;;;;35.17;22.58;;;;;;;;;;6232831;28;20045;-67
2021/10/13 05:44:03;;;;;;;45.78;23.60;;;;;;;;;;6240183;28;20041;-68
2021/10/13 05:47:06;;;;;;;38.33;25.10;;;;;;;;;;6225603;28;20637;-68
2021/10/13 05:50:08;;;;;;;38.05;23.00;;;;;;;;;;6236743;28;20055;-71
2021/10/13 05:53:10;;;;;;;36.85;23.02;;;;;;;;;;6231897;28;20060;-69
2021/10/13 05:56:11;;;;;;;34.97;23.63;;;;;;;;;;6228300;28;20038;-68
2021/10/13 05:59:13;;;;;;;35.53;23.70;;;;;;;;;;6235647;28;20528;-68
2021/10/13 06:02:15;;;;;;;35.85;23.88;;;;;;;;;;6223553;28;20048;-73
2021/10/13 06:05:17;;;;;;;36.72;23.67;;;;;;;;;;6229167;28;20121;-67
2021/10/13 06:08:20;;;;;;;37.90;23.60;;;;;;;;;;6234928;28;20144;-68
2021/10/13 06:11:22;;;;;;;36.33;23.65;;;;;;;;;;6216146;28;20461;-71
2021/10/13 06:14:23;;;;;;;38.38;22.40;;;;;;;;;;6234621;28;20756;-67
2021/10/13 06:17:26;;;;;;;37.72;22.65;;;;;;;;;;6212486;28;20197;-67
2021/10/13 06:20:28;;;;;;;34.00;22.35;;;;;;;;;;6221095;28;20199;-69
2021/10/13 06:23:30;;;;;;;33.20;21.80;;;;;;;;;;6230146;28;20084;-70
2021/10/13 06:26:31;;;;;;;38.38;22.42;;;;;;;;;;6226464;28;20037;-67
2021/10/13 06:29:33;;;;;;;34.47;23.20;;;;;;;;;;6231268;28;20088;-68
2021/10/13 06:32:36;;;;;;;39.55;22.95;;;;;;;;;;6216204;28;20885;-67
2021/10/13 06:35:38;;;;;;;36.33;22.90;;;;;;;;;;6221069;28;20375;-68
2021/10/13 06:38:39;;;;;;;35.70;22.88;;;;;;;;;;6237252;28;20084;-68
2021/10/13 06:41:41;;;;;;;33.20;23.25;;;;;;;;;;6222963;28;20069;-68
2021/10/13 06:44:42;;;;;;;35.30;23.65;;;;;;;;;;6228367;28;20241;-67
2021/10/13 06:47:45;;;;;;;37.58;23.58;;;;;;;;;;6219878;28;20180;-67
2021/10/13 06:50:47;;;;;;;34.13;23.35;;;;;;;;;;6224198;28;20053;-68
2021/10/13 06:53:48;;;;;;;34.25;23.80;;;;;;;;;;6233309;28;20525;-68
2021/10/13 06:56:50;;;;;;;36.35;23.50;;;;;;;;;;6224383;28;20152;-70
2021/10/13 06:59:52;;;;;;;38.58;23.58;;;;;;;;;;6216896;28;20045;-68
2021/10/13 07:02:55;;;;;;;39.80;24.70;;;;;;;;;;6230711;28;20116;-70
2021/10/13 07:05:56;;;;;;;36.45;24.25;;;;;;;;;;6225986;28;20128;-70
2021/10/13 07:08:58;;;;;;;35.67;23.85;;;;;;;;;;6236958;28;20052;-70
2021/10/13 07:12:00;;;;;;;35.45;24.00;;;;;;;;;;6231781;28;20063;-68
2021/10/13 07:15:01;;;;;;;41.13;24.63;;;;;;;;;;6235003;28;20049;-71
2021/10/13 07:18:04;;;;;;;35.63;24.02;;;;;;;;;;6214051;28;20243;-71
2021/10/13 07:21:06;;;;;;;36.95;24.60;;;;;;;;;;6228934;28;20080;-71
2021/10/13 07:24:08;;;;;;;36.67;23.27;;;;;;;;;;6235610;28;20596;-72
2021/10/13 07:27:09;;;;;;;38.55;24.45;;;;;;;;;;6227334;28;20570;-71
2021/10/13 07:30:14;;;;;;;37.42;22.95;;;;;;;;;;6229355;28;20717;-74
2021/10/13 07:33:17;;;;;;;42.45;23.10;;;;;;;;;;6223941;28;20393;-71
2021/10/13 07:36:19;;;;;;;35.38;23.02;;;;;;;;;;6220326;28;20046;-71
2021/10/13 07:39:20;;;;;;;36.00;22.25;;;;;;;;;;6229273;28;20046;-71
2021/10/13 07:42:22;;;;;;;36.17;22.65;;;;;;;;;;6221316;28;20053;-71
2021/10/13 07:45:24;;;;;;;37.08;23.13;;;;;;;;;;6224245;28;20048;-71
2021/10/13 07:48:27;;;;;;;43.00;23.75;;;;;;;;;;6229748;28;20128;-70
2021/10/13 07:51:29;;;;;;;39.40;23.00;;;;;;;;;;6222826;28;20042;-71
2021/10/13 07:54:30;;;;;;;39.58;24.65;;;;;;;;;;6230668;28;20132;-72
2021/10/13 07:57:32;;;;;;;36.00;23.88;;;;;;;;;;6225524;28;20132;-71
2021/10/13 08:00:33;;;;;;;36.30;23.38;;;;;;;;;;6225818;28;20180;-71
2021/10/13 08:03:36;;;;;;;37.95;23.58;;;;;;;;;;6237899;28;20096;-71
2021/10/13 08:06:38;;;;;;;35.95;23.48;;;;;;;;;;6237045;28;20081;-72
2021/10/13 08:09:40;;;;;;;43.15;25.77;;;;;;;;;;6234572;28;20183;-71
2021/10/13 08:12:41;;;;;;;36.92;25.50;;;;;;;;;;6228577;28;20414;-71
2021/10/13 08:15:44;;;;;;;36.88;24.48;;;;;;;;;;6221738;28;20106;-76
2021/10/13 08:18:47;;;;;;;36.13;25.33;;;;;;;;;;6231382;28;20156;-70
2021/10/13 08:21:49;;;;;;;40.72;25.35;;;;;;;;;;6231479;28;20443;-72
2021/10/13 08:24:50;;;;;;;36.58;23.90;;;;;;;;;;6236594;28;20219;-74
2021/10/13 08:27:52;;;;;;;33.67;22.45;;;;;;;;;;6231155;28;20050;-71
2021/10/13 08:30:54;;;;;;;32.63;21.75;;;;;;;;;;6226392;28;20064;-71
2021/10/13 08:33:56;;;;;;;32.97;21.33;;;;;;;;;;6235434;28;20755;-71
2021/10/13 08:36:58;;;;;;;28.53;22.70;;;;;;;;;;6227420;28;20119;-71
2021/10/13 08:40:00;;;;;;;31.80;23.83;;;;;;;;;;6233353;28;20557;-70
2021/10/13 08:43:03;;;;;;;31.08;22.42;;;;;;;;;;6226940;28;20067;-71
2021/10/13 08:46:04;;;;;;;31.42;22.15;;;;;;;;;;6220498;28;20041;-74
2021/10/13 08:49:08;;;;;;;29.20;21.52;;;;;;;;;;6231878;28;20037;-70
2021/10/13 08:52:10;;;;;;;30.48;22.23;;;;;;;;;;6227442;28;20488;-70
2021/10/13 08:55:12;;;;;;;30.17;21.63;;;;;;;;;;6232926;28;20135;-75
2021/10/13 08:58:15;;;;;;;29.15;21.15;;;;;;;;;;6231493;28;20100;-71
2021/10/13 09:01:17;;;;;;;29.40;23.13;;;;;;;;;;6219912;28;20291;-71
2021/10/13 09:04:20;;;;;;;30.23;21.40;;;;;;;;;;6232059;28;20049;-71
2021/10/13 09:07:21;;;;;;;33.90;21.45;;;;;;;;;;6224336;28;20362;-74
2021/10/13 09:10:28;;;;;;;29.65;21.65;;;;;;;;;;6227082;28;20685;-73
2021/10/13 09:13:37;;;;;;;29.77;21.92;;;;;;;;;;6235312;28;20046;-69
2021/10/13 09:16:54;;;;;;;26.38;21.25;;;;;;;;;;6221177;28;20201;-71
2021/10/13 09:19:57;;;;;;;27.35;20.92;;;;;;;;;;6232913;28;20050;-73
2021/10/13 09:23:02;;;;;;;26.88;20.65;;;;;;;;;;6224414;28;20057;-71
2021/10/13 09:26:06;;;;;;;27.95;21.20;;;;;;;;;;6224394;28;20037;-70
2021/10/13 09:29:08;;;;;;;26.85;19.83;;;;;;;;;;6240695;28;20171;-70
2021/10/13 09:32:10;;;;;;;29.17;20.77;;;;;;;;;;6230939;28;20054;-70
2021/10/13 09:35:13;;;;;;;27.45;20.42;;;;;;;;;;6234661;28;20087;-73
2021/10/13 09:38:19;;;;;;;31.38;20.67;;;;;;;;;;6223986;28;20053;-72
2021/10/13 09:41:20;;;;;;;24.85;20.85;;;;;;;;;;6224548;28;20431;-70
2021/10/13 09:44:22;;;;;;;23.35;20.38;;;;;;;;;;6234301;28;20067;-70
2021/10/13 09:47:30;;;;;;;22.60;19.80;;;;;;;;;;6217485;28;20055;-71
2021/10/13 09:50:41;;;;;;;26.10;19.98;;;;;;;;;;6222601;28;20037;-73
2021/10/13 09:53:43;;;;;;;29.15;20.98;;;;;;;;;;6235748;28;20033;-72
2021/10/13 09:56:45;;;;;;;25.83;21.10;;;;;;;;;;6223930;28;20049;-68
2021/10/13 09:59:57;;;;;;;34.35;20.85;;;;;;;;;;6236974;28;22955;-67
2021/10/13 10:03:00;;;;;;;74.90;24.88;;;;;;;;;;6215949;28;20049;-69
2021/10/13 10:06:03;;;;;;;35.85;21.60;;;;;;;;;;6232093;28;20481;-80
2021/10/13 10:09:06;;;;;;;25.48;21.00;;;;;;;;;;6235832;28;20045;-73
2021/10/13 10:12:09;;;;;;;25.10;19.70;;;;;;;;;;6225036;28;20046;-70
2021/10/13 10:15:11;;;;;;;22.60;19.60;;;;;;;;;;6229623;28;20061;-78
2021/10/13 10:18:31;;;;;;;21.70;19.42;;;;;;;;;;6227579;28;20080;-73
2021/10/13 10:21:34;;;;;;;22.60;19.55;;;;;;;;;;6223096;28;20508;-73
2021/10/13 10:24:36;;;;;;;23.90;20.02;;;;;;;;;;6235611;28;20545;-71
2021/10/13 10:27:38;;;;;;;22.48;19.77;;;;;;;;;;6220211;28;20776;-71
2021/10/13 10:30:39;;;;;;;23.85;19.00;;;;;;;;;;6221147;28;20110;-74
2021/10/13 10:33:49;;;;;;;24.30;18.77;;;;;;;;;;6218776;28;20674;-72
2021/10/13 10:37:11;;;;;;;26.13;20.08;;;;;;;;;;6217647;28;20038;-72
2021/10/13 10:40:15;;;;;;;23.30;20.27;;;;;;;;;;6223883;28;20068;-72
2021/10/13 10:43:23;;;;;;;25.48;20.15;;;;;;;;;;6233949;28;20760;-74
2021/10/13 10:46:59;;;;;;;24.23;20.02;;;;;;;;;;6218793;28;20045;-71
2021/10/13 10:50:05;;;;;;;22.00;19.60;;;;;;;;;;6229019;28;20053;-70
2021/10/13 10:53:20;;;;;;;21.98;19.02;;;;;;;;;;6222956;28;20046;-71
2021/10/13 10:56:31;;;;;;;24.90;20.65;;;;;;;;;;6222384;28;20049;-71
2021/10/13 10:59:39;;;;;;;24.02;19.67;;;;;;;;;;6234233;28;20617;-72
2021/10/13 11:02:40;;;;;;;22.42;20.05;;;;;;;;;;6214031;28;20063;-71
2021/10/13 11:05:42;;;;;;;24.38;21.77;;;;;;;;;;6220503;28;20957;-71
2021/10/13 11:08:57;;;;;;;23.03;20.73;;;;;;;;;;6231518;28;20053;-71
2021/10/13 11:11:59;;;;;;;24.63;22.00;;;;;;;;;;6221515;28;20463;-72
2021/10/13 11:15:11;;;;;;;24.70;22.20;;;;;;;;;;6228967;28;20248;-72
2021/10/13 11:18:14;;;;;;;24.70;22.13;;;;;;;;;;6202522;28;20044;-71
2021/10/13 11:21:15;;;;;;;24.48;21.13;;;;;;;;;;6216603;28;20075;-71
2021/10/13 11:24:18;;;;;;;27.30;21.80;;;;;;;;;;6231875;28;20049;-72
2021/10/13 11:27:23;;;;;;;24.65;21.75;;;;;;;;;;6221175;28;20505;-71
2021/10/13 11:30:25;;;;;;;25.83;21.50;;;;;;;;;;6223361;28;20053;-71
2021/10/13 11:33:26;;;;;;;25.10;22.42;;;;;;;;;;6228182;28;20057;-73
2021/10/13 11:36:28;;;;;;;23.40;21.03;;;;;;;;;;6224476;28;20512;-74
2021/10/13 11:39:33;;;;;;;22.40;20.00;;;;;;;;;;6237036;28;20046;-71
2021/10/13 11:42:34;;;;;;;28.38;23.75;;;;;;;;;;6228055;28;20203;-71
2021/10/13 11:45:36;;;;;;;28.30;22.77;;;;;;;;;;6225957;28;20799;-71
2021/10/13 11:48:37;;;;;;;26.47;22.93;;;;;;;;;;6233657;28;21002;-70
2021/10/13 11:51:39;;;;;;;27.23;23.27;;;;;;;;;;6225390;28;20053;-71
2021/10/13 11:54:42;;;;;;;29.58;23.92;;;;;;;;;;6237744;28;20048;-72
2021/10/13 11:57:51;;;;;;;28.13;23.55;;;;;;;;;;6232662;28;20106;-72
2021/10/13 12:00:54;;;;;;;26.42;23.67;;;;;;;;;;6231756;28;20438;-70
2021/10/13 12:03:56;;;;;;;;;;;;;;;;;;6239125;28;20188;-69
2021/10/13 12:06:57;;;;;;;28.15;24.60;;;;;;;;;;6228528;28;20067;-70
2021/10/13 12:10:02;;;;;;;28.17;25.23;;;;;;;;;;6240509;28;20115;-70
2021/10/13 12:13:05;;;;;;;29.42;25.02;;;;;;;;;;6230702;28;20148;-70
2021/10/13 12:16:09;;;;;;;30.85;25.98;;;;;;;;;;6226878;28;20082;-71
2021/10/13 12:19:12;;;;;;;28.75;25.65;;;;;;;;;;6235067;28;20089;-71
2021/10/13 12:22:13;;;;;;;31.40;25.65;;;;;;;;;;6229543;28;20113;-72
2021/10/13 12:25:29;;;;;;;26.35;23.45;;;;;;;;;;6229207;28;20095;-73
2021/10/13 12:28:31;;;;;;;26.20;22.20;;;;;;;;;;6240251;28;20041;-71
2021/10/13 12:31:32;;;;;;;25.80;20.92;;;;;;;;;;6224588;28;20050;-71
2021/10/13 12:34:34;;;;;;;24.58;19.48;;;;;;;;;;6239279;28;20847;-71
2021/10/13 12:37:35;;;;;;;23.95;20.27;;;;;;;;;;6217846;28;20042;-70
2021/10/13 12:40:39;;;;;;;26.33;22.40;;;;;;;;;;6224909;28;20152;-72
2021/10/13 12:43:41;;;;;;;27.70;22.90;;;;;;;;;;6229482;28;20085;-73
2021/10/13 12:46:53;;;;;;;27.40;23.63;;;;;;;;;;6217263;28;20045;-71
2021/10/13 12:49:57;;;;;;;23.92;20.50;;;;;;;;;;6230613;28;20124;-70
2021/10/13 12:52:59;;;;;;;24.17;21.02;;;;;;;;;;6224605;28;20053;-70
2021/10/13 12:56:02;;;;;;;26.58;20.30;;;;;;;;;;6223104;28;20099;-70
2021/10/13 12:59:03;;;;;;;24.90;20.33;;;;;;;;;;6234695;28;20107;-70
2021/10/13 13:02:05;;;;;;;22.45;19.92;;;;;;;;;;6214606;28;20068;-70
2021/10/13 13:05:07;;;;;;;19.73;16.95;;;;;;;;;;6233047;28;20049;-72
2021/10/13 13:08:09;;;;;;;16.87;15.07;;;;;;;;;;6228696;28;20123;-70
2021/10/13 13:11:11;;;;;;;20.85;16.92;;;;;;;;;;6223457;28;20116;-70
2021/10/13 13:14:13;;;;;;;23.08;17.35;;;;;;;;;;6235683;28;20063;-70
2021/10/13 13:17:15;;;;;;;21.90;17.33;;;;;;;;;;6207646;28;20498;-70
2021/10/13 13:20:16;;;;;;;22.23;17.67;;;;;;;;;;6225914;28;20181;-70
2021/10/13 13:23:18;;;;;;;20.83;16.95;;;;;;;;;;6230926;28;20037;-70
2021/10/13 13:26:22;;;;;;;19.95;15.77;;;;;;;;;;6223665;28;20045;-70
2021/10/13 13:29:23;;;;;;;18.30;15.40;;;;;;;;;;6231526;28;20106;-70
2021/10/13 13:32:25;;;;;;;20.55;17.25;;;;;;;;;;6212683;28;20170;-72
2021/10/13 13:35:26;;;;;;;19.88;16.30;;;;;;;;;;6219540;28;20794;-70
2021/10/13 13:38:28;;;;;;;19.55;16.98;;;;;;;;;;6236901;28;20054;-70
2021/10/13 13:41:31;;;;;;;23.60;18.38;;;;;;;;;;6223342;28;20046;-70
2021/10/13 13:44:33;;;;;;;23.45;18.08;;;;;;;;;;6236853;28;20117;-71
2021/10/13 13:47:35;;;;;;;22.20;17.17;;;;;;;;;;6216012;28;20029;-70
2021/10/13 13:50:37;;;;;;;17.40;14.77;;;;;;;;;;6223937;28;20084;-70
2021/10/13 13:53:39;;;;;;;21.60;16.70;;;;;;;;;;6233153;28;20448;-70
2021/10/13 13:56:42;;;;;;;20.35;16.90;;;;;;;;;;6223980;28;20673;-70
2021/10/13 13:59:43;;;;;;;23.10;16.48;;;;;;;;;;6237375;28;20041;-70
2021/10/13 14:02:45;;;;;;;21.65;16.15;;;;;;;;;;6215309;28;20227;-70
2021/10/13 14:05:46;;;;;;;21.17;17.67;;;;;;;;;;6223734;28;20046;-69
2021/10/13 14:08:48;;;;;;;23.52;18.58;;;;;;;;;;6236622;28;20061;-70
2021/10/13 14:11:51;;;;;;;22.85;17.23;;;;;;;;;;6228822;28;20055;-69
2021/10/13 14:14:52;;;;;;;20.42;16.83;;;;;;;;;;6244818;28;20128;-69
2021/10/13 14:17:54;;;;;;;19.23;16.13;;;;;;;;;;6226947;28;20048;-69
2021/10/13 14:20:56;;;;;;;19.65;16.00;;;;;;;;;;6217391;28;20337;-69
2021/10/13 14:23:58;;;;;;;20.65;16.42;;;;;;;;;;6230922;28;20053;-69
2021/10/13 14:27:01;;;;;;;20.17;15.18;;;;;;;;;;6223382;28;20513;-68
2021/10/13 14:30:05;;;;;;;16.13;13.15;;;;;;;;;;6238806;28;20183;-69
2021/10/13 14:33:07;;;;;;;16.90;13.85;;;;;;;;;;6215044;28;20068;-71
2021/10/13 14:36:08;;;;;;;15.32;12.88;;;;;;;;;;6219833;28;20103;-71
2021/10/13 14:39:10;;;;;;;24.52;15.07;;;;;;;;;;6220512;28;20080;-69
2021/10/13 14:42:15;;;;;;;20.13;14.05;;;;;;;;;;6220620;28;20045;-69
2021/10/13 14:45:18;;;;;;;18.63;14.02;;;;;;;;;;6228869;28;20044;-69
2021/10/13 14:48:20;;;;;;;17.17;14.18;;;;;;;;;;6225595;28;20110;-71
2021/10/13 14:51:21;;;;;;;16.48;13.13;;;;;;;;;;6217022;28;22007;-69
2021/10/13 14:54:23;;;;;;;20.00;15.05;;;;;;;;;;6233659;28;20112;-70
2021/10/13 14:57:26;;;;;;;19.67;14.65;;;;;;;;;;6220070;28;20636;-70
2021/10/13 15:00:28;;;;;;;16.88;13.70;;;;;;;;;;6221990;28;20037;-68
2021/10/13 15:03:29;;;;;;;19.30;14.77;;;;;;;;;;6224593;28;20044;-70
2021/10/13 15:06:32;;;;;;;17.77;14.75;;;;;;;;;;6221659;28;20081;-69
2021/10/13 15:09:34;;;;;;;20.35;15.00;;;;;;;;;;6228881;28;20068;-72
2021/10/13 15:12:37;;;;;;;22.85;14.73;;;;;;;;;;6219109;28;20429;-68
2021/10/13 15:15:39;;;;;;;19.20;15.57;;;;;;;;;;6215904;28;20155;-70
2021/10/13 15:18:40;;;;;;;19.33;14.93;;;;;;;;;;6226121;28;20045;-70
2021/10/13 15:21:42;;;;;;;19.92;16.30;;;;;;;;;;6220191;28;20045;-69
2021/10/13 15:24:46;;;;;;;17.75;14.40;;;;;;;;;;6231742;28;20239;-70
2021/10/13 15:27:49;;;;;;;19.30;14.80;;;;;;;;;;6224135;28;20058;-69
2021/10/13 15:30:50;;;;;;;17.77;14.27;;;;;;;;;;6218157;28;20046;-69
2021/10/13 15:33:52;;;;;;;18.92;15.02;;;;;;;;;;6228172;28;20045;-70
2021/10/13 15:36:55;;;;;;;19.45;15.27;;;;;;;;;;6207948;28;20133;-71
2021/10/13 15:39:57;;;;;;;18.15;15.35;;;;;;;;;;6233385;28;20037;-69
2021/10/13 15:43:03;;;;;;;20.13;14.98;;;;;;;;;;6219072;28;20045;-69
2021/10/13 15:46:04;;;;;;;18.38;15.68;;;;;;;;;;6215602;28;20045;-71
2021/10/13 15:49:07;;;;;;;24.25;15.82;;;;;;;;;;6233913;28;20118;-69
2021/10/13 15:52:09;;;;;;;19.80;15.30;;;;;;;;;;6223022;28;20038;-70
2021/10/13 15:55:11;;;;;;;18.25;14.65;;;;;;;;;;6222212;28;20046;-72
2021/10/13 15:58:14;;;;;;;20.83;15.20;;;;;;;;;;6228771;28;20046;-70
2021/10/13 16:01:16;;;;;;;21.42;16.30;;;;;;;;;;6216883;28;20048;-69
2021/10/13 16:04:18;;;;;;;19.42;15.45;;;;;;;;;;6229969;28;20531;-67
2021/10/13 16:07:20;;;;;;;18.05;14.52;;;;;;;;;;6225544;28;20485;-69
2021/10/13 16:10:22;;;;;;;20.48;15.23;;;;;;;;;;6224244;28;20140;-72
2021/10/13 16:13:25;;;;;;;23.55;15.40;;;;;;;;;;6231342;28;20049;-72
2021/10/13 16:16:29;;;;;;;19.55;14.70;;;;;;;;;;6214565;28;21283;-70
2021/10/13 16:19:31;;;;;;;20.02;15.48;;;;;;;;;;6225070;28;20045;-72
2021/10/13 16:22:32;;;;;;;24.60;15.60;;;;;;;;;;6215339;28;20074;-71
2021/10/13 16:25:35;;;;;;;22.15;15.35;;;;;;;;;;6225492;28;20037;-69
2021/10/13 16:28:38;;;;;;;19.90;16.10;;;;;;;;;;6239260;28;20129;-69
2021/10/13 16:31:44;;;;;;;22.67;14.55;;;;;;;;;;6218987;28;20456;-72
2021/10/13 16:34:46;;;;;;;23.52;16.05;;;;;;;;;;6240123;28;20136;-69
2021/10/13 16:37:48;;;;;;;23.05;15.88;;;;;;;;;;6219687;28;20056;-70
2021/10/13 16:40:50;;;;;;;20.80;15.38;;;;;;;;;;6227505;28;20410;-70
2021/10/13 16:43:53;;;;;;;21.38;14.85;;;;;;;;;;6240397;28;20183;-70
2021/10/13 16:46:54;;;;;;;23.98;16.10;;;;;;;;;;6215524;28;20724;-69
2021/10/13 16:49:56;;;;;;;20.83;14.45;;;;;;;;;;6231647;28;20053;-72
2021/10/13 16:52:58;;;;;;;23.48;14.68;;;;;;;;;;6221527;28;20081;-70
2021/10/13 16:56:00;;;;;;;23.05;14.70;;;;;;;;;;6222532;28;20099;-73
2021/10/13 16:59:03;;;;;;;24.73;16.35;;;;;;;;;;6232175;28;20127;-70
2021/10/13 17:02:06;;;;;;;23.00;14.27;;;;;;;;;;6222907;28;20034;-69
2021/10/13 17:05:08;;;;;;;25.55;15.90;;;;;;;;;;6228154;28;20057;-71
2021/10/13 17:08:09;;;;;;;22.92;15.63;;;;;;;;;;6224910;28;20127;-69
2021/10/13 17:11:11;;;;;;;23.67;14.40;;;;;;;;;;6220667;28;20586;-68
2021/10/13 17:14:14;;;;;;;23.00;14.80;;;;;;;;;;6230926;28;20183;-73
2021/10/13 17:17:16;;;;;;;25.05;15.57;;;;;;;;;;6203647;28;20168;-69
2021/10/13 17:20:17;;;;;;;28.75;18.58;;;;;;;;;;6217520;28;20137;-70
2021/10/13 17:23:19;;;;;;;27.15;17.60;;;;;;;;;;6230872;28;20061;-70
2021/10/13 17:26:20;;;;;;;21.92;16.17;;;;;;;;;;6224618;28;20095;-70
2021/10/13 17:29:23;;;;;;;24.92;16.63;;;;;;;;;;6234537;28;20085;-68
2021/10/13 17:32:25;;;;;;;27.15;16.88;;;;;;;;;;6218230;28;20751;-69
2021/10/13 17:35:27;;;;;;;26.58;16.92;;;;;;;;;;6224301;28;20608;-69
2021/10/13 17:38:29;;;;;;;30.92;18.40;;;;;;;;;;6235332;28;20398;-69
2021/10/13 17:41:30;;;;;;;25.58;16.27;;;;;;;;;;6226964;28;20046;-69
2021/10/13 17:44:33;;;;;;;27.45;16.55;;;;;;;;;;6237197;28;20049;-69
2021/10/13 17:47:35;;;;;;;25.17;15.68;;;;;;;;;;6218493;28;20058;-70